Time,TemperatureF,DewpointF,PressureIn,WindDirection,WindDirectionDegrees,WindSpeedMPH,WindSpeedGustMPH,Humidity,HourlyPrecipIn,Conditions,Clouds,dailyrainin,SoftwareType,DateUTC
2013-03-08 00:00:00,33.6,17.4,0.00,NNE,20,0.0,0.0,51,0.00,,---,0.00,VWS V14.01,2013-03-08 05:00:00,
2013-03-08 00:01:00,33.6,17.4,0.00,NNE,20,0.0,0.0,51,0.00,,---,0.00,VWS V14.01,2013-03-08 05:01:00,
2013-03-08 00:04:00,33.6,17.4,0.00,NNE,29,3.1,3.6,51,0.00,,---,0.00,VWS V14.01,2013-03-08 05:04:00,
2013-03-08 00:09:00,33.6,17.4,0.00,NNE,29,0.0,0.0,51,0.00,,---,0.00,VWS V14.01,2013-03-08 05:09:00,
2013-03-08 00:14:00,33.6,17.4,0.00,NNE,29,0.0,0.0,51,0.00,,---,0.00,VWS V14.01,2013-03-08 05:14:00,
2013-03-08 00:19:00,33.6,17.4,0.00,NNE,21,2.7,3.1,51,0.00,,---,0.00,VWS V14.01,2013-03-08 05:19:00,
2013-03-08 00:24:00,33.6,17.4,0.00,NNE,21,0.0,2.7,51,0.00,,---,0.00,VWS V14.01,2013-03-08 05:24:00,
2013-03-08 00:30:00,33.6,17.4,0.00,NNE,17,0.0,3.6,51,0.00,,---,0.00,VWS V14.01,2013-03-08 05:30:00,
2013-03-08 00:35:00,33.6,17.4,0.00,NNE,16,0.0,0.0,51,0.00,,---,0.00,VWS V14.01,2013-03-08 05:35:00,
2013-03-08 00:40:00,33.6,17.4,0.00,NNE,15,0.0,0.0,51,0.00,,---,0.00,VWS V14.01,2013-03-08 05:40:00,
2013-03-08 00:45:00,33.6,17.4,0.00,NNE,15,0.0,0.0,51,0.00,,---,0.00,VWS V14.01,2013-03-08 05:45:00,
2013-03-08 00:51:00,33.6,17.4,0.00,NNE,14,0.0,0.0,51,0.00,,---,0.00,VWS V14.01,2013-03-08 05:51:00,
2013-03-08 00:56:00,33.6,17.0,0.00,NNE,14,0.0,0.0,50,0.00,,---,0.00,VWS V14.01,2013-03-08 05:56:00,
2013-03-08 01:01:00,33.6,17.0,0.00,NNE,17,0.0,0.0,50,0.00,,---,0.00,VWS V14.01,2013-03-08 06:01:00,
2013-03-08 01:07:00,33.6,17.4,0.00,NE,39,0.0,3.6,51,0.00,,---,0.00,VWS V14.01,2013-03-08 06:07:00,
2013-03-08 01:12:00,33.6,17.4,0.00,NE,39,0.0,0.0,51,0.00,,---,0.00,VWS V14.01,2013-03-08 06:12:00,
2013-03-08 01:18:00,33.6,17.0,0.00,NNE,16,2.2,2.2,50,0.00,,---,0.00,VWS V14.01,2013-03-08 06:18:00,
2013-03-08 01:23:00,33.4,16.8,0.00,North,7,0.0,0.0,50,0.00,,---,0.00,VWS V14.01,2013-03-08 06:23:00,
2013-03-08 01:29:00,33.3,16.6,0.00,NNE,21,0.0,0.0,50,0.00,,---,0.00,VWS V14.01,2013-03-08 06:29:00,
2013-03-08 01:34:00,33.3,16.6,0.00,NNE,16,0.0,0.0,50,0.00,,---,0.00,VWS V14.01,2013-03-08 06:34:00,
2013-03-08 01:40:00,33.3,16.6,0.00,NNE,16,0.0,0.0,50,0.00,,---,0.00,VWS V14.01,2013-03-08 06:40:00,
2013-03-08 01:45:00,33.3,16.6,0.00,NNE,16,0.0,0.0,50,0.00,,---,0.00,VWS V14.01,2013-03-08 06:45:00,
2013-03-08 01:50:00,33.3,16.6,0.00,NNE,16,0.0,0.0,50,0.00,,---,0.00,VWS V14.01,2013-03-08 06:50:00,
2013-03-08 01:55:00,33.3,16.6,0.00,NNE,16,0.0,0.0,50,0.00,,---,0.00,VWS V14.01,2013-03-08 06:55:00,
2013-03-08 02:01:00,33.4,16.8,0.00,NNE,16,0.0,0.0,50,0.00,,---,0.00,VWS V14.01,2013-03-08 07:01:00,
2013-03-08 02:06:00,33.4,16.8,0.00,NNE,16,0.0,0.0,50,0.00,,---,0.00,VWS V14.01,2013-03-08 07:06:00,
2013-03-08 02:12:00,33.4,16.8,0.00,NNE,31,0.0,0.0,50,0.00,,---,0.00,VWS V14.01,2013-03-08 07:12:00,
2013-03-08 02:17:00,33.3,16.2,0.00,NNE,13,0.0,0.0,49,0.00,,---,0.00,VWS V14.01,2013-03-08 07:17:00,
2013-03-08 02:23:00,33.3,16.2,0.00,NNE,13,0.0,0.0,49,0.00,,---,0.00,VWS V14.01,2013-03-08 07:23:00,
2013-03-08 02:28:00,33.3,16.2,0.00,NNE,13,0.0,0.0,49,0.00,,---,0.00,VWS V14.01,2013-03-08 07:28:00,
2013-03-08 02:34:00,33.3,16.2,0.00,NNE,27,0.0,0.0,49,0.00,,---,0.00,VWS V14.01,2013-03-08 07:34:00,
2013-03-08 02:40:00,33.1,16.0,0.00,NNE,27,0.0,0.0,49,0.00,,---,0.00,VWS V14.01,2013-03-08 07:40:00,
2013-03-08 02:45:00,33.1,16.0,0.00,NNE,14,0.0,0.0,49,0.00,,---,0.00,VWS V14.01,2013-03-08 07:45:00,
2013-03-08 02:51:00,32.9,16.3,0.00,NNE,24,0.0,0.0,50,0.00,,---,0.00,VWS V14.01,2013-03-08 07:51:00,
2013-03-08 02:56:00,32.9,16.3,0.00,NNE,17,0.0,0.0,50,0.00,,---,0.00,VWS V14.01,2013-03-08 07:56:00,
2013-03-08 03:01:00,32.9,16.3,0.00,North,9,0.0,0.0,50,0.00,,---,0.00,VWS V14.01,2013-03-08 08:01:00,
2013-03-08 03:07:00,32.9,16.3,0.00,NNE,22,0.0,0.0,50,0.00,,---,0.00,VWS V14.01,2013-03-08 08:07:00,
2013-03-08 03:12:00,32.9,16.3,0.00,NNE,19,0.0,0.0,50,0.00,,---,0.00,VWS V14.01,2013-03-08 08:12:00,
2013-03-08 03:18:00,32.9,16.3,0.00,NNE,20,0.0,0.0,50,0.00,,---,0.00,VWS V14.01,2013-03-08 08:18:00,
2013-03-08 03:23:00,32.9,16.3,0.00,NNE,21,0.0,0.0,50,0.00,,---,0.00,VWS V14.01,2013-03-08 08:23:00,
2013-03-08 03:29:00,32.9,16.8,0.00,NNE,21,0.0,0.0,51,0.00,,---,0.00,VWS V14.01,2013-03-08 08:29:00,
2013-03-08 03:34:00,32.9,16.8,0.00,NNE,20,0.0,0.0,51,0.00,,---,0.00,VWS V14.01,2013-03-08 08:34:00,
2013-03-08 03:40:00,32.7,16.6,0.00,NNE,21,0.0,0.0,51,0.00,,---,0.00,VWS V14.01,2013-03-08 08:40:00,
2013-03-08 03:45:00,32.7,16.6,0.00,NNE,21,0.0,0.0,51,0.00,,---,0.00,VWS V14.01,2013-03-08 08:45:00,
2013-03-08 03:50:00,32.9,16.8,0.00,NNE,20,0.0,0.0,51,0.00,,---,0.00,VWS V14.01,2013-03-08 08:50:00,
2013-03-08 03:56:00,32.9,16.8,0.00,NNE,20,0.0,0.0,51,0.00,,---,0.00,VWS V14.01,2013-03-08 08:56:00,
2013-03-08 04:01:00,32.9,16.8,0.00,NNE,21,0.0,0.0,51,0.00,,---,0.00,VWS V14.01,2013-03-08 09:01:00,
2013-03-08 04:07:00,32.7,16.6,0.00,NNE,20,0.0,0.0,51,0.00,,---,0.00,VWS V14.01,2013-03-08 09:07:00,
2013-03-08 04:12:00,32.7,16.6,0.00,NNE,20,0.0,0.0,51,0.00,,---,0.00,VWS V14.01,2013-03-08 09:12:00,
2013-03-08 04:18:00,32.7,16.6,0.00,NNE,20,0.0,0.0,51,0.00,,---,0.00,VWS V14.01,2013-03-08 09:18:00,
2013-03-08 04:23:00,32.7,16.6,0.00,NNE,21,0.0,0.0,51,0.00,,---,0.00,VWS V14.01,2013-03-08 09:23:00,
2013-03-08 04:29:00,32.9,16.8,0.00,NNE,20,0.0,0.0,51,0.00,,---,0.00,VWS V14.01,2013-03-08 09:29:00,
2013-03-08 04:35:00,32.9,16.8,0.00,NNE,20,0.0,0.0,51,0.00,,---,0.00,VWS V14.01,2013-03-08 09:35:00,
2013-03-08 04:40:00,32.9,16.8,0.00,NNE,20,0.0,0.0,51,0.00,,---,0.00,VWS V14.01,2013-03-08 09:40:00,
2013-03-08 04:46:00,32.9,16.8,0.00,NNE,21,0.0,0.0,51,0.00,,---,0.00,VWS V14.01,2013-03-08 09:46:00,
2013-03-08 04:52:00,32.9,16.8,0.00,NNE,20,0.0,0.0,51,0.00,,---,0.00,VWS V14.01,2013-03-08 09:52:00,
2013-03-08 04:57:00,32.9,16.8,0.00,NNE,20,0.0,0.0,51,0.00,,---,0.00,VWS V14.01,2013-03-08 09:57:00,
2013-03-08 05:03:00,32.9,16.8,0.00,NNE,20,0.0,0.0,51,0.00,,---,0.00,VWS V14.01,2013-03-08 10:03:00,
2013-03-08 05:08:00,32.7,16.1,0.00,NNE,21,0.0,0.0,50,0.00,,---,0.00,VWS V14.01,2013-03-08 10:08:00,
2013-03-08 05:14:00,32.7,16.1,0.00,NNE,21,0.0,0.0,50,0.00,,---,0.00,VWS V14.01,2013-03-08 10:14:00,
2013-03-08 05:19:00,32.5,16.0,0.00,NNE,21,0.0,0.0,50,0.00,,---,0.00,VWS V14.01,2013-03-08 10:19:00,
2013-03-08 05:25:00,32.5,15.5,0.00,NNE,20,0.0,0.0,49,0.00,,---,0.00,VWS V14.01,2013-03-08 10:25:00,
2013-03-08 05:31:00,32.5,15.5,0.00,NNE,21,0.0,0.0,49,0.00,,---,0.00,VWS V14.01,2013-03-08 10:31:00,
2013-03-08 05:36:00,32.5,15.5,0.00,NNE,21,0.0,0.0,49,0.00,,---,0.00,VWS V14.01,2013-03-08 10:36:00,
2013-03-08 05:42:00,32.5,15.5,0.00,NNE,21,0.0,0.0,49,0.00,,---,0.00,VWS V14.01,2013-03-08 10:42:00,
2013-03-08 05:48:00,32.5,16.0,0.00,NNE,21,0.0,0.0,50,0.00,,---,0.00,VWS V14.01,2013-03-08 10:48:00,
2013-03-08 05:53:00,32.5,16.0,0.00,NNE,21,0.0,0.0,50,0.00,,---,0.00,VWS V14.01,2013-03-08 10:53:00,
2013-03-08 05:59:00,32.5,16.0,0.00,NNE,20,0.0,0.0,50,0.00,,---,0.00,VWS V14.01,2013-03-08 10:59:00,
2013-03-08 06:04:00,32.5,16.0,0.00,NNE,20,0.0,0.0,50,0.00,,---,0.00,VWS V14.01,2013-03-08 11:04:00,
2013-03-08 06:10:00,32.5,16.0,0.00,NNE,20,0.0,0.0,50,0.00,,---,0.00,VWS V14.01,2013-03-08 11:10:00,
2013-03-08 06:15:00,32.5,16.0,0.00,NNE,21,0.0,0.0,50,0.00,,---,0.00,VWS V14.01,2013-03-08 11:15:00,
2013-03-08 06:21:00,32.5,16.4,0.00,NNE,21,0.0,0.0,51,0.00,,---,0.00,VWS V14.01,2013-03-08 11:21:00,
2013-03-08 06:27:00,32.5,16.4,0.00,NNE,20,0.0,0.0,51,0.00,,---,0.00,VWS V14.01,2013-03-08 11:27:00,
2013-03-08 06:32:00,32.4,16.3,0.00,NNE,20,0.0,0.0,51,0.00,,---,0.00,VWS V14.01,2013-03-08 11:32:00,
2013-03-08 06:37:00,32.5,16.4,0.00,NNE,21,0.0,0.0,51,0.00,,---,0.00,VWS V14.01,2013-03-08 11:37:00,
2013-03-08 06:42:00,32.5,16.9,0.00,NNE,20,0.0,0.0,52,0.00,,---,0.00,VWS V14.01,2013-03-08 11:42:00,
2013-03-08 06:47:00,32.5,16.9,0.00,NNE,20,0.0,0.0,52,0.00,,---,0.00,VWS V14.01,2013-03-08 11:47:00,
2013-03-08 06:52:00,32.4,16.7,0.00,NNE,21,0.0,0.0,52,0.00,,---,0.00,VWS V14.01,2013-03-08 11:52:00,
2013-03-08 06:58:00,32.2,16.5,0.00,NNE,20,0.0,0.0,52,0.00,,---,0.00,VWS V14.01,2013-03-08 11:58:00,
2013-03-08 07:03:00,32.2,16.5,0.00,NNE,21,0.0,0.0,52,0.00,,---,0.00,VWS V14.01,2013-03-08 12:03:00,
2013-03-08 07:09:00,32.4,16.7,0.00,NNE,21,0.0,0.0,52,0.00,,---,0.00,VWS V14.01,2013-03-08 12:09:00,
2013-03-08 07:14:00,32.2,16.5,0.00,NNE,20,0.0,0.0,52,0.00,,---,0.00,VWS V14.01,2013-03-08 12:14:00,
2013-03-08 07:19:00,32.2,16.5,0.00,NNE,21,0.0,0.0,52,0.00,,---,0.00,VWS V14.01,2013-03-08 12:19:00,
2013-03-08 07:24:00,32.2,16.5,0.00,NNE,20,0.0,0.0,52,0.00,,---,0.00,VWS V14.01,2013-03-08 12:24:00,
2013-03-08 07:30:00,32.2,16.5,0.00,NNE,20,0.0,0.0,52,0.00,,---,0.00,VWS V14.01,2013-03-08 12:30:00,
2013-03-08 07:35:00,32.4,16.7,0.00,NNE,21,0.0,0.0,52,0.00,,---,0.00,VWS V14.01,2013-03-08 12:35:00,
2013-03-08 07:41:00,32.5,17.3,0.00,NNE,20,0.0,0.0,53,0.00,,---,0.00,VWS V14.01,2013-03-08 12:41:00,
2013-03-08 07:46:00,32.7,17.5,0.00,NNE,21,0.0,0.0,53,0.00,,---,0.00,VWS V14.01,2013-03-08 12:46:00,
2013-03-08 07:52:00,33.1,17.8,0.00,NNE,21,0.0,0.0,53,0.00,,---,0.00,VWS V14.01,2013-03-08 12:52:00,
2013-03-08 07:58:00,33.1,17.4,0.00,NNE,20,0.0,0.0,52,0.00,,---,0.00,VWS V14.01,2013-03-08 12:58:00,
2013-03-08 08:03:00,33.1,17.4,0.00,NNE,21,0.0,0.0,52,0.00,,---,0.00,VWS V14.01,2013-03-08 13:03:00,
2013-03-08 08:08:00,33.3,17.5,0.00,NNE,21,0.0,0.0,52,0.00,,---,0.00,VWS V14.01,2013-03-08 13:08:00,
2013-03-08 08:13:00,33.3,17.5,0.00,NNE,20,0.0,0.0,52,0.00,,---,0.00,VWS V14.01,2013-03-08 13:13:00,
2013-03-08 08:18:00,33.3,17.5,0.00,NNE,20,0.0,0.0,52,0.00,,---,0.00,VWS V14.01,2013-03-08 13:18:00,
2013-03-08 08:24:00,33.3,17.1,0.00,NNE,20,0.0,0.0,51,0.00,,---,0.00,VWS V14.01,2013-03-08 13:24:00,
2013-03-08 08:29:00,33.3,17.1,0.00,NNE,21,0.0,0.0,51,0.00,,---,0.00,VWS V14.01,2013-03-08 13:29:00,
2013-03-08 08:35:00,33.6,17.4,0.00,NNE,21,0.0,0.0,51,0.00,,---,0.00,VWS V14.01,2013-03-08 13:35:00,
2013-03-08 08:41:00,33.6,17.0,0.00,NNE,21,0.0,0.0,50,0.00,,---,0.00,VWS V14.01,2013-03-08 13:41:00,
2013-03-08 08:46:00,33.8,17.1,0.00,NNE,20,0.0,0.0,50,0.00,,---,0.00,VWS V14.01,2013-03-08 13:46:00,
2013-03-08 08:51:00,33.8,17.1,0.00,NNE,21,0.0,0.0,50,0.00,,---,0.00,VWS V14.01,2013-03-08 13:51:00,
2013-03-08 08:56:00,33.8,16.2,0.00,NNE,20,0.0,0.0,48,0.00,,---,0.00,VWS V14.01,2013-03-08 13:56:00,
2013-03-08 09:02:00,34.0,16.4,0.00,NNE,20,0.0,0.0,48,0.00,,---,0.00,VWS V14.01,2013-03-08 14:02:00,
2013-03-08 09:08:00,34.0,15.4,0.00,NNE,21,0.0,0.0,46,0.00,,---,0.00,VWS V14.01,2013-03-08 14:08:00,
2013-03-08 09:13:00,33.8,15.2,0.00,NNE,21,0.0,0.0,46,0.00,,---,0.00,VWS V14.01,2013-03-08 14:13:00,
2013-03-08 09:19:00,33.6,14.1,0.00,NNE,24,0.0,0.0,44,0.00,,---,0.00,VWS V14.01,2013-03-08 14:19:00,
2013-03-08 09:24:00,33.6,14.6,0.00,NW,314,0.0,0.0,45,0.00,,---,0.00,VWS V14.01,2013-03-08 14:24:00,
2013-03-08 09:30:00,33.4,14.4,0.00,NNW,348,0.0,0.0,45,0.00,,---,0.00,VWS V14.01,2013-03-08 14:30:00,
2013-03-08 09:35:00,33.6,15.1,0.00,North,353,0.0,0.0,46,0.00,,---,0.00,VWS V14.01,2013-03-08 14:35:00,
2013-03-08 09:41:00,33.4,14.9,0.00,North,353,0.0,0.0,46,0.00,,---,0.00,VWS V14.01,2013-03-08 14:41:00,
2013-03-08 09:46:00,33.6,15.6,0.00,North,353,0.0,0.0,47,0.00,,---,0.00,VWS V14.01,2013-03-08 14:46:00,
2013-03-08 09:51:00,33.8,15.7,0.00,North,353,0.0,0.0,47,0.00,,---,0.00,VWS V14.01,2013-03-08 14:51:00,
2013-03-08 09:56:00,33.6,15.6,0.00,North,357,0.0,0.0,47,0.00,,---,0.00,VWS V14.01,2013-03-08 14:56:00,
2013-03-08 10:01:00,33.8,15.7,0.00,North,357,0.0,0.0,47,0.00,,---,0.00,VWS V14.01,2013-03-08 15:01:00,
2013-03-08 10:06:00,34.0,15.9,0.00,North,357,0.0,0.0,47,0.00,,---,0.00,VWS V14.01,2013-03-08 15:06:00,
2013-03-08 10:12:00,34.2,15.6,0.00,North,357,0.0,0.0,46,0.00,,---,0.00,VWS V14.01,2013-03-08 15:12:00,
2013-03-08 10:17:00,34.2,15.1,0.00,North,1,0.0,0.0,45,0.00,,---,0.00,VWS V14.01,2013-03-08 15:17:00,
2013-03-08 10:23:00,34.3,14.7,0.00,North,2,0.0,0.0,44,0.00,,---,0.00,VWS V14.01,2013-03-08 15:23:00,
2013-03-08 10:29:00,34.3,14.2,0.00,North,4,0.0,0.0,43,0.00,,---,0.00,VWS V14.01,2013-03-08 15:29:00,
2013-03-08 10:34:00,34.3,14.2,0.00,North,6,0.0,0.0,43,0.00,,---,0.00,VWS V14.01,2013-03-08 15:34:00,
2013-03-08 10:40:00,34.3,14.2,0.00,North,9,0.0,0.0,43,0.00,,---,0.00,VWS V14.01,2013-03-08 15:40:00,
2013-03-08 10:46:00,34.3,14.2,0.00,NNE,26,0.0,0.0,43,0.00,,---,0.00,VWS V14.01,2013-03-08 15:46:00,
2013-03-08 10:51:00,34.5,14.3,0.00,NNE,30,0.0,0.0,43,0.00,,---,0.00,VWS V14.01,2013-03-08 15:51:00,
2013-03-08 10:56:00,34.7,14.5,0.00,NNE,28,0.0,0.0,43,0.00,,---,0.00,VWS V14.01,2013-03-08 15:56:00,
2013-03-08 11:01:00,34.9,14.7,0.00,NNE,22,0.0,0.0,43,0.00,,---,0.00,VWS V14.01,2013-03-08 16:01:00,
2013-03-08 11:07:00,35.6,15.3,0.00,NNE,18,0.0,0.0,43,0.00,,---,0.00,VWS V14.01,2013-03-08 16:07:00,
2013-03-08 11:12:00,35.8,15.5,0.00,NNE,31,0.0,0.0,43,0.00,,---,0.00,VWS V14.01,2013-03-08 16:12:00,
2013-03-08 11:18:00,36.1,15.8,0.00,NNE,22,0.0,0.0,43,0.00,,---,0.00,VWS V14.01,2013-03-08 16:18:00,
2013-03-08 11:23:00,36.3,15.4,0.00,NNE,25,0.0,0.0,42,0.00,,---,0.00,VWS V14.01,2013-03-08 16:23:00,
2013-03-08 11:29:00,36.5,15.6,0.00,North,2,0.0,0.0,42,0.00,,---,0.00,VWS V14.01,2013-03-08 16:29:00,
2013-03-08 11:35:00,36.5,15.6,0.00,NNE,29,0.0,0.0,42,0.00,,---,0.00,VWS V14.01,2013-03-08 16:35:00,
2013-03-08 11:40:00,36.7,15.8,0.00,NNE,22,0.0,0.0,42,0.00,,---,0.00,VWS V14.01,2013-03-08 16:40:00,
2013-03-08 11:46:00,36.7,15.2,0.00,NNE,20,0.0,0.0,41,0.00,,---,0.00,VWS V14.01,2013-03-08 16:46:00,
2013-03-08 11:51:00,36.9,15.4,0.00,NE,35,0.0,0.0,41,0.00,,---,0.00,VWS V14.01,2013-03-08 16:51:00,
2013-03-08 11:57:00,36.9,14.8,0.00,NNE,27,0.0,0.0,40,0.00,,---,0.00,VWS V14.01,2013-03-08 16:57:00,
2013-03-08 12:03:00,36.7,14.6,0.00,NNE,14,0.0,0.0,40,0.00,,---,0.00,VWS V14.01,2013-03-08 17:03:00,
2013-03-08 12:08:00,36.9,14.8,0.00,NNE,17,0.0,0.0,40,0.00,,---,0.00,VWS V14.01,2013-03-08 17:08:00,
2013-03-08 12:14:00,36.9,14.8,0.00,NNE,21,0.0,0.0,40,0.00,,---,0.00,VWS V14.01,2013-03-08 17:14:00,
2013-03-08 12:19:00,37.0,15.0,0.00,NNE,22,0.0,0.0,40,0.00,,---,0.00,VWS V14.01,2013-03-08 17:19:00,
2013-03-08 12:25:00,36.9,14.2,0.00,NNE,21,0.0,0.0,39,0.00,,---,0.00,VWS V14.01,2013-03-08 17:25:00,
2013-03-08 12:30:00,36.9,14.2,0.00,NNE,21,0.0,0.0,39,0.00,,---,0.00,VWS V14.01,2013-03-08 17:30:00,
2013-03-08 12:36:00,37.0,14.4,0.00,NNE,21,0.0,0.0,39,0.00,,---,0.00,VWS V14.01,2013-03-08 17:36:00,
2013-03-08 12:42:00,37.2,14.6,0.00,NNE,22,0.0,0.0,39,0.00,,---,0.00,VWS V14.01,2013-03-08 17:42:00,
2013-03-08 12:47:00,37.6,14.9,0.00,NNE,22,0.0,0.0,39,0.00,,---,0.00,VWS V14.01,2013-03-08 17:47:00,
2013-03-08 12:53:00,37.9,15.2,0.00,NNE,21,0.0,0.0,39,0.00,,---,0.00,VWS V14.01,2013-03-08 17:53:00,
2013-03-08 12:58:00,38.1,15.4,0.00,NNE,22,0.0,0.0,39,0.00,,---,0.00,VWS V14.01,2013-03-08 17:58:00,
2013-03-08 13:04:00,38.5,15.7,0.00,NNE,21,0.0,0.0,39,0.00,,---,0.00,VWS V14.01,2013-03-08 18:04:00,
2013-03-08 13:10:00,38.7,15.9,0.00,NNE,22,0.0,0.0,39,0.00,,---,0.00,VWS V14.01,2013-03-08 18:10:00,
2013-03-08 13:15:00,38.7,15.9,0.00,NNE,22,0.0,0.0,39,0.00,,---,0.00,VWS V14.01,2013-03-08 18:15:00,
2013-03-08 13:21:00,38.8,15.4,0.00,NNE,25,0.0,0.0,38,0.00,,---,0.00,VWS V14.01,2013-03-08 18:21:00,
2013-03-08 13:26:00,38.8,15.4,0.00,NNE,25,0.0,0.0,38,0.00,,---,0.00,VWS V14.01,2013-03-08 18:26:00,
2013-03-08 13:32:00,38.7,14.6,0.00,NNE,25,0.0,0.0,37,0.00,,---,0.00,VWS V14.01,2013-03-08 18:32:00,
2013-03-08 13:38:00,38.7,14.0,0.00,NNE,25,0.0,0.0,36,0.00,,---,0.00,VWS V14.01,2013-03-08 18:38:00,
2013-03-08 13:43:00,38.7,14.0,0.00,NNE,25,0.0,0.0,36,0.00,,---,0.00,VWS V14.01,2013-03-08 18:43:00,
2013-03-08 13:49:00,38.7,14.0,0.00,NNE,25,0.0,0.0,36,0.00,,---,0.00,VWS V14.01,2013-03-08 18:49:00,
2013-03-08 13:54:00,38.8,14.2,0.00,NNE,25,0.0,0.0,36,0.00,,---,0.00,VWS V14.01,2013-03-08 18:54:00,
2013-03-08 14:00:00,38.5,13.2,0.00,NNE,25,0.0,0.0,35,0.00,,---,0.00,VWS V14.01,2013-03-08 19:00:00,
2013-03-08 14:06:00,37.9,12.1,0.00,ENE,74,0.0,0.0,34,0.00,,---,0.00,VWS V14.01,2013-03-08 19:06:00,
2013-03-08 14:11:00,37.6,11.8,0.00,NNE,21,5.8,5.8,34,0.00,,---,0.00,VWS V14.01,2013-03-08 19:11:00,
2013-03-08 14:17:00,37.4,11.6,0.00,NE,34,0.0,2.7,34,0.00,,---,0.00,VWS V14.01,2013-03-08 19:17:00,
2013-03-08 14:22:00,37.4,12.3,0.00,NNE,33,2.7,4.9,35,0.00,,---,0.00,VWS V14.01,2013-03-08 19:22:00,
2013-03-08 14:27:00,37.4,12.3,0.00,NNE,28,5.8,5.8,35,0.00,,---,0.00,VWS V14.01,2013-03-08 19:27:00,
2013-03-08 14:33:00,37.8,13.2,0.00,NNE,24,2.7,2.7,36,0.00,,---,0.00,VWS V14.01,2013-03-08 19:33:00,
2013-03-08 14:38:00,38.1,12.2,0.00,NNE,18,5.8,8.1,34,0.00,,---,0.00,VWS V14.01,2013-03-08 19:38:00,
2013-03-08 14:44:00,38.7,12.1,0.00,NNE,23,0.0,5.8,33,0.00,,---,0.00,VWS V14.01,2013-03-08 19:44:00,
2013-03-08 14:49:00,39.0,11.7,0.00,NNE,28,2.7,3.6,32,0.00,,---,0.00,VWS V14.01,2013-03-08 19:49:00,
2013-03-08 14:55:00,38.8,11.5,0.00,NNE,21,3.1,6.3,32,0.00,,---,0.00,VWS V14.01,2013-03-08 19:55:00,
2013-03-08 15:00:00,38.8,10.8,0.00,NNE,17,4.9,7.6,31,0.00,,---,0.00,VWS V14.01,2013-03-08 20:00:00,
2013-03-08 15:06:00,38.8,10.8,0.00,NNE,32,5.4,6.3,31,0.00,,---,0.00,VWS V14.01,2013-03-08 20:06:00,
2013-03-08 15:12:00,38.8,10.8,0.00,NE,38,5.4,5.4,31,0.00,,---,0.00,VWS V14.01,2013-03-08 20:12:00,
2013-03-08 15:17:00,38.8,10.8,0.00,NNE,18,3.1,5.4,31,0.00,,---,0.00,VWS V14.01,2013-03-08 20:17:00,
2013-03-08 15:23:00,38.8,10.8,0.00,NNW,336,3.1,3.1,31,0.00,,---,0.00,VWS V14.01,2013-03-08 20:23:00,
2013-03-08 15:28:00,39.0,11.0,0.00,NE,52,4.9,6.7,31,0.00,,---,0.00,VWS V14.01,2013-03-08 20:28:00,
2013-03-08 15:34:00,39.4,10.5,0.00,NNE,23,0.0,4.0,30,0.00,,---,0.00,VWS V14.01,2013-03-08 20:34:00,
2013-03-08 15:39:00,39.4,10.5,0.00,NNE,25,3.6,4.0,30,0.00,,---,0.00,VWS V14.01,2013-03-08 20:39:00,
2013-03-08 15:45:00,39.6,10.7,0.00,NNE,28,3.1,5.8,30,0.00,,---,0.00,VWS V14.01,2013-03-08 20:45:00,
2013-03-08 15:51:00,39.6,10.7,0.00,NNE,27,3.6,8.1,30,0.00,,---,0.00,VWS V14.01,2013-03-08 20:51:00,
2013-03-08 15:56:00,39.9,11.0,0.00,North,357,7.6,7.6,30,0.00,,---,0.00,VWS V14.01,2013-03-08 20:56:00,
2013-03-08 16:02:00,40.1,10.4,0.00,NNE,15,5.4,6.3,29,0.00,,---,0.00,VWS V14.01,2013-03-08 21:02:00,
2013-03-08 16:08:00,40.5,10.7,0.00,North,4,3.1,4.0,29,0.00,,---,0.00,VWS V14.01,2013-03-08 21:08:00,
2013-03-08 16:13:00,40.6,10.9,0.00,North,4,5.4,9.6,29,0.00,,---,0.00,VWS V14.01,2013-03-08 21:13:00,
2013-03-08 16:19:00,41.2,11.4,0.00,NNE,14,3.6,4.0,29,0.00,,---,0.00,VWS V14.01,2013-03-08 21:19:00,
2013-03-08 16:24:00,41.4,11.5,0.00,NNE,13,3.6,5.4,29,0.00,,---,0.00,VWS V14.01,2013-03-08 21:24:00,
2013-03-08 16:30:00,41.5,11.7,0.00,NE,40,0.0,4.0,29,0.00,,---,0.00,VWS V14.01,2013-03-08 21:30:00,
2013-03-08 16:36:00,41.7,11.8,0.00,North,5,2.7,4.0,29,0.00,,---,0.00,VWS V14.01,2013-03-08 21:36:00,
2013-03-08 16:41:00,41.7,11.8,0.00,NNE,23,2.7,5.8,29,0.00,,---,0.00,VWS V14.01,2013-03-08 21:41:00,
2013-03-08 16:47:00,41.5,11.7,0.00,North,11,4.9,8.7,29,0.00,,---,0.00,VWS V14.01,2013-03-08 21:47:00,
2013-03-08 16:52:00,41.2,11.4,0.00,North,3,3.6,5.8,29,0.00,,---,0.00,VWS V14.01,2013-03-08 21:52:00,
2013-03-08 16:58:00,41.2,11.4,0.00,North,10,2.7,10.1,29,0.00,,---,0.00,VWS V14.01,2013-03-08 21:58:00,
2013-03-08 17:04:00,41.4,11.5,0.00,North,10,3.6,8.1,29,0.00,,---,0.00,VWS V14.01,2013-03-08 22:04:00,
2013-03-08 17:09:00,41.4,11.5,0.00,NNE,24,3.1,6.7,29,0.00,,---,0.00,VWS V14.01,2013-03-08 22:09:00,
2013-03-08 17:14:00,41.4,11.5,0.00,North,0,4.0,6.7,29,0.00,,---,0.00,VWS V14.01,2013-03-08 22:14:00,
2013-03-08 17:19:00,41.4,11.5,0.00,NNE,18,6.3,6.3,29,0.00,,---,0.00,VWS V14.01,2013-03-08 22:19:00,
2013-03-08 17:24:00,41.5,11.7,0.00,NE,36,4.0,5.8,29,0.00,,---,0.00,VWS V14.01,2013-03-08 22:24:00,
2013-03-08 17:30:00,41.5,11.7,0.00,North,1,4.0,4.0,29,0.00,,---,0.00,VWS V14.01,2013-03-08 22:30:00,
2013-03-08 17:35:00,41.5,10.9,0.00,NE,43,8.7,8.7,28,0.00,,---,0.00,VWS V14.01,2013-03-08 22:35:00,
2013-03-08 17:41:00,41.5,10.9,0.00,NNE,25,4.0,6.3,28,0.00,,---,0.00,VWS V14.01,2013-03-08 22:41:00,
2013-03-08 17:46:00,41.4,10.7,0.00,North,9,5.4,5.4,28,0.00,,---,0.00,VWS V14.01,2013-03-08 22:46:00,
2013-03-08 17:51:00,41.2,10.6,0.00,NE,34,3.6,5.4,28,0.00,,---,0.00,VWS V14.01,2013-03-08 22:51:00,
2013-03-08 17:57:00,41.2,10.6,0.00,NNE,29,2.7,6.3,28,0.00,,---,0.00,VWS V14.01,2013-03-08 22:57:00,
2013-03-08 18:02:00,41.2,10.6,0.00,NE,37,2.7,2.7,28,0.00,,---,0.00,VWS V14.01,2013-03-08 23:02:00,
2013-03-08 18:08:00,41.2,10.6,0.00,NNE,23,4.9,4.9,28,0.00,,---,0.00,VWS V14.01,2013-03-08 23:08:00,
2013-03-08 18:13:00,41.4,10.7,0.00,North,0,5.4,8.7,28,0.00,,---,0.00,VWS V14.01,2013-03-08 23:13:00,
2013-03-08 18:18:00,41.5,10.9,0.00,NNE,21,0.0,0.0,28,0.00,,---,0.00,VWS V14.01,2013-03-08 23:18:00,
2013-03-08 18:23:00,41.5,10.9,0.00,NNE,19,3.1,7.6,28,0.00,,---,0.00,VWS V14.01,2013-03-08 23:23:00,
2013-03-08 18:28:00,41.5,10.9,0.00,North,11,5.8,5.8,28,0.00,,---,0.00,VWS V14.01,2013-03-08 23:28:00,
2013-03-08 18:34:00,41.5,10.9,0.00,East,88,0.0,5.4,28,0.00,,---,0.00,VWS V14.01,2013-03-08 23:34:00,
2013-03-08 18:39:00,41.5,10.9,0.00,North,2,5.8,6.3,28,0.00,,---,0.00,VWS V14.01,2013-03-08 23:39:00,
2013-03-08 18:44:00,41.2,10.6,0.00,NNE,14,3.6,4.0,28,0.00,,---,0.00,VWS V14.01,2013-03-08 23:44:00,
2013-03-08 18:49:00,41.4,10.7,0.00,NNE,28,6.3,6.3,28,0.00,,---,0.00,VWS V14.01,2013-03-08 23:49:00,
2013-03-08 18:54:00,41.7,11.0,0.00,NE,34,3.1,6.3,28,0.00,,---,0.00,VWS V14.01,2013-03-08 23:54:00,
2013-03-08 19:00:00,41.7,11.0,0.00,NNE,26,7.6,7.6,28,0.00,,---,0.00,VWS V14.01,2013-03-09 00:00:00,
2013-03-08 19:05:00,41.9,11.2,0.00,North,2,4.0,6.3,28,0.00,,---,0.00,VWS V14.01,2013-03-09 00:05:00,
2013-03-08 19:10:00,41.7,11.0,0.00,NNE,21,8.3,8.3,28,0.00,,---,0.00,VWS V14.01,2013-03-09 00:10:00,
2013-03-08 19:15:00,41.9,11.2,0.00,NNE,12,5.4,10.5,28,0.00,,---,0.00,VWS V14.01,2013-03-09 00:15:00,
2013-03-08 19:20:00,42.1,11.3,0.00,North,7,6.3,6.3,28,0.00,,---,0.00,VWS V14.01,2013-03-09 00:20:00,
2013-03-08 19:25:00,41.9,11.2,0.00,NNE,30,5.4,7.2,28,0.00,,---,0.00,VWS V14.01,2013-03-09 00:25:00,
2013-03-08 19:31:00,42.1,11.3,0.00,North,8,6.3,6.7,28,0.00,,---,0.00,VWS V14.01,2013-03-09 00:31:00,
2013-03-08 19:36:00,41.7,11.0,0.00,NNE,17,4.9,8.1,28,0.00,,---,0.00,VWS V14.01,2013-03-09 00:36:00,
2013-03-08 19:42:00,41.7,11.0,0.00,NE,41,5.4,6.3,28,0.00,,---,0.00,VWS V14.01,2013-03-09 00:42:00,
2013-03-08 19:47:00,41.7,11.0,0.00,NE,49,5.4,5.4,28,0.00,,---,0.00,VWS V14.01,2013-03-09 00:47:00,
2013-03-08 19:53:00,41.7,11.0,0.00,NE,43,5.4,6.3,28,0.00,,---,0.00,VWS V14.01,2013-03-09 00:53:00,
2013-03-08 19:59:00,41.5,10.9,0.00,NNE,33,5.4,7.6,28,0.00,,---,0.00,VWS V14.01,2013-03-09 00:59:00,
2013-03-08 20:04:00,41.5,10.9,0.00,North,357,4.0,6.3,28,0.00,,---,0.00,VWS V14.01,2013-03-09 01:04:00,
2013-03-08 20:10:00,41.5,10.9,0.00,NNE,26,2.7,5.4,28,0.00,,---,0.00,VWS V14.01,2013-03-09 01:10:00,
2013-03-08 20:15:00,41.4,10.7,0.00,NNE,18,5.8,5.8,28,0.00,,---,0.00,VWS V14.01,2013-03-09 01:15:00,
2013-03-08 20:21:00,41.4,10.7,0.00,NNE,22,4.0,5.8,28,0.00,,---,0.00,VWS V14.01,2013-03-09 01:21:00,
2013-03-08 20:26:00,41.2,10.6,0.00,NE,34,6.3,7.2,28,0.00,,---,0.00,VWS V14.01,2013-03-09 01:26:00,
2013-03-08 20:32:00,41.4,10.7,0.00,NNE,32,4.9,5.8,28,0.00,,---,0.00,VWS V14.01,2013-03-09 01:32:00,
2013-03-08 20:38:00,41.4,10.7,0.00,NNE,32,5.4,8.7,28,0.00,,---,0.00,VWS V14.01,2013-03-09 01:38:00,
2013-03-08 20:43:00,41.5,10.9,0.00,NNE,29,6.3,12.3,28,0.00,,---,0.00,VWS V14.01,2013-03-09 01:43:00,
2013-03-08 20:48:00,41.5,10.9,0.00,North,0,5.8,8.7,28,0.00,,---,0.00,VWS V14.01,2013-03-09 01:48:00,
2013-03-08 20:53:00,41.7,11.0,0.00,NNE,16,7.6,7.6,28,0.00,,---,0.00,VWS V14.01,2013-03-09 01:53:00,
2013-03-08 20:59:00,41.5,10.9,0.00,NNE,14,6.3,6.3,28,0.00,,---,0.00,VWS V14.01,2013-03-09 01:59:00,
2013-03-08 21:04:00,41.5,10.9,0.00,NNE,18,7.6,9.2,28,0.00,,---,0.00,VWS V14.01,2013-03-09 02:04:00,
2013-03-08 21:09:00,41.5,10.9,0.00,North,10,5.4,5.8,28,0.00,,---,0.00,VWS V14.01,2013-03-09 02:09:00,
2013-03-08 21:14:00,41.4,10.7,0.00,NNE,31,5.4,5.4,28,0.00,,---,0.00,VWS V14.01,2013-03-09 02:14:00,
2013-03-08 21:20:00,41.2,10.6,0.00,NNE,16,3.1,5.8,28,0.00,,---,0.00,VWS V14.01,2013-03-09 02:20:00,
2013-03-08 21:25:00,41.2,10.6,0.00,NNE,21,4.9,8.7,28,0.00,,---,0.00,VWS V14.01,2013-03-09 02:25:00,
2013-03-08 21:30:00,41.2,10.6,0.00,North,357,6.3,8.7,28,0.00,,---,0.00,VWS V14.01,2013-03-09 02:30:00,
2013-03-08 21:35:00,41.2,10.6,0.00,NNW,343,3.6,7.6,28,0.00,,---,0.00,VWS V14.01,2013-03-09 02:35:00,
2013-03-08 21:40:00,41.2,10.6,0.00,ESE,108,8.1,11.0,28,0.00,,---,0.00,VWS V14.01,2013-03-09 02:40:00,
2013-03-08 21:45:00,41.2,10.6,0.00,WNW,301,5.4,7.2,28,0.00,,---,0.00,VWS V14.01,2013-03-09 02:45:00,
2013-03-08 21:51:00,41.2,10.6,0.00,NNW,340,8.7,8.7,28,0.00,,---,0.00,VWS V14.01,2013-03-09 02:51:00,
2013-03-08 21:56:00,40.8,11.0,0.00,North,2,4.0,6.3,29,0.00,,---,0.00,VWS V14.01,2013-03-09 02:56:00,
2013-03-08 22:02:00,40.6,10.9,0.00,North,11,4.9,4.9,29,0.00,,---,0.00,VWS V14.01,2013-03-09 03:02:00,
2013-03-08 22:07:00,40.3,10.6,0.00,NNE,20,5.4,5.4,29,0.00,,---,0.00,VWS V14.01,2013-03-09 03:07:00,
2013-03-08 22:12:00,40.5,10.7,0.00,North,9,8.7,8.7,29,0.00,,---,0.00,VWS V14.01,2013-03-09 03:12:00,
2013-03-08 22:17:00,40.5,10.7,0.00,North,3,3.6,4.0,29,0.00,,---,0.00,VWS V14.01,2013-03-09 03:17:00,
2013-03-08 22:23:00,40.3,10.6,0.00,NNE,24,4.0,5.4,29,0.00,,---,0.00,VWS V14.01,2013-03-09 03:23:00,
2013-03-08 22:28:00,40.1,10.4,0.00,NNE,15,4.0,4.0,29,0.00,,---,0.00,VWS V14.01,2013-03-09 03:28:00,
2013-03-08 22:34:00,39.9,10.2,0.00,North,10,3.1,5.8,29,0.00,,---,0.00,VWS V14.01,2013-03-09 03:34:00,
2013-03-08 22:39:00,39.9,10.2,0.00,NNW,345,5.4,5.4,29,0.00,,---,0.00,VWS V14.01,2013-03-09 03:39:00,
2013-03-08 22:44:00,39.7,10.1,0.00,NNE,30,3.1,4.9,29,0.00,,---,0.00,VWS V14.01,2013-03-09 03:44:00,
2013-03-08 22:49:00,39.7,10.1,0.00,NNE,33,5.8,5.8,29,0.00,,---,0.00,VWS V14.01,2013-03-09 03:49:00,
2013-03-08 22:55:00,39.9,10.2,0.00,North,11,3.6,4.5,29,0.00,,---,0.00,VWS V14.01,2013-03-09 03:55:00,
2013-03-08 23:00:00,39.7,10.1,0.00,NNE,31,6.3,6.3,29,0.00,,---,0.00,VWS V14.01,2013-03-09 04:00:00,
2013-03-08 23:06:00,39.7,10.1,0.00,NNE,13,5.4,5.4,29,0.00,,---,0.00,VWS V14.01,2013-03-09 04:06:00,
2013-03-08 23:12:00,39.7,10.1,0.00,NNE,12,4.0,4.0,29,0.00,,---,0.00,VWS V14.01,2013-03-09 04:12:00,
2013-03-08 23:17:00,39.6,9.9,0.00,North,1,4.0,4.9,29,0.00,,---,0.00,VWS V14.01,2013-03-09 04:17:00,
2013-03-08 23:22:00,39.6,9.9,0.00,NNE,13,4.9,4.9,29,0.00,,---,0.00,VWS V14.01,2013-03-09 04:22:00,
2013-03-08 23:27:00,39.4,9.8,0.00,NNE,14,3.1,5.4,29,0.00,,---,0.00,VWS V14.01,2013-03-09 04:27:00,
2013-03-08 23:33:00,39.2,9.6,0.00,NNE,33,8.1,8.1,29,0.00,,---,0.00,VWS V14.01,2013-03-09 04:33:00,
2013-03-08 23:38:00,39.2,9.6,0.00,NNE,13,4.0,5.8,29,0.00,,---,0.00,VWS V14.01,2013-03-09 04:38:00,
2013-03-08 23:43:00,39.2,9.6,0.00,NNW,336,4.0,7.6,29,0.00,,---,0.00,VWS V14.01,2013-03-09 04:43:00,
2013-03-08 23:48:00,39.2,9.6,0.00,NNE,24,4.0,4.9,29,0.00,,---,0.00,VWS V14.01,2013-03-09 04:48:00,
2013-03-08 23:54:00,39.0,9.5,0.00,NNE,28,4.0,6.3,29,0.00,,---,0.00,VWS V14.01,2013-03-09 04:54:00,
2013-03-08 23:59:00,39.0,9.5,0.00,NNE,24,4.0,7.6,29,0.00,,---,0.00,VWS V14.01,2013-03-09 04:59:00,